Time;durP1;ratioP1;P1;durP2;ratioP2;P2;SDS_P1;SDS_P2;PMS_P1;PMS_P2;Temp;Humidity;BMP_temperature;BMP_pressure;BME280_temperature;BME280_humidity;BME280_pressure;Samples;Min_cycle;Max_cycle;Signal;HPM_P1;HPM_P2
2021/10/11 00:01:07;;;;;;;14.93;9.70;;;21.90;45.40;;;;;;4907440;29;20449;-84
2021/10/11 00:03:35;;;;;;;13.80;10.57;;;22.00;45.60;;;;;;4907529;29;20457;-84
2021/10/11 00:06:03;;;;;;;15.20;10.10;;;22.00;45.50;;;;;;4907910;28;20549;-84
2021/10/11 00:08:31;;;;;;;13.23;9.80;;;21.90;45.40;;;;;;4907002;29;20432;-85
2021/10/11 00:11:00;;;;;;;13.73;10.53;;;22.00;45.60;;;;;;4906761;29;20545;-84
2021/10/11 00:13:29;;;;;;;13.70;10.30;;;21.90;45.60;;;;;;4907619;29;20437;-85
2021/10/11 00:15:56;;;;;;;18.07;10.47;;;22.00;45.60;;;;;;4907658;28;20481;-85
2021/10/11 00:18:25;;;;;;;16.53;10.67;;;22.00;45.60;;;;;;4907273;29;20503;-85
2021/10/11 00:20:53;;;;;;;13.90;9.83;;;22.00;45.50;;;;;;4906853;29;20476;-85
2021/10/11 00:23:21;;;;;;;15.40;10.20;;;21.90;46.10;;;;;;4907602;29;20507;-85
2021/10/11 00:25:49;;;;;;;14.90;10.37;;;21.90;45.60;;;;;;4906978;28;20484;-85
2021/10/11 00:28:18;;;;;;;16.10;10.90;;;22.00;45.60;;;;;;4965143;28;20440;-85
2021/10/11 00:30:46;;;;;;;14.33;10.30;;;21.90;45.50;;;;;;5006463;28;20445;-85
2021/10/11 00:33:14;;;;;;;16.17;10.93;;;22.00;45.70;;;;;;5006003;28;20452;-85
2021/10/11 00:35:43;;;;;;;13.87;10.07;;;21.90;45.70;;;;;;5006932;28;20440;-85
2021/10/11 00:38:11;;;;;;;14.53;10.53;;;22.00;45.70;;;;;;4945247;28;20481;-85
2021/10/11 00:40:39;;;;;;;16.20;10.10;;;21.90;45.60;;;;;;4907185;29;20527;-84
2021/10/11 00:43:07;;;;;;;17.90;9.93;;;21.90;45.60;;;;;;4907287;29;20453;-85
2021/10/11 00:45:37;;;;;;;16.43;9.97;;;22.00;45.80;;;;;;4906643;29;20497;-84
2021/10/11 00:48:05;;;;;;;14.03;9.80;;;21.90;45.60;;;;;;4907277;29;20433;-84
2021/10/11 00:50:34;;;;;;;13.97;10.17;;;21.90;45.70;;;;;;4906415;29;20444;-85
2021/10/11 00:53:02;;;;;;;15.30;10.70;;;21.90;45.70;;;;;;4906850;29;20534;-85
2021/10/11 00:55:30;;;;;;;14.20;10.37;;;21.90;45.70;;;;;;4906729;28;20426;-86
2021/10/11 00:57:58;;;;;;;15.90;9.70;;;21.90;45.80;;;;;;4906564;28;20495;-85
2021/10/11 01:00:26;;;;;;;16.37;10.07;;;21.90;45.80;;;;;;4906726;29;20483;-86
2021/10/11 01:02:55;;;;;;;14.23;9.60;;;21.80;45.90;;;;;;4907551;28;20453;-85
2021/10/11 01:05:23;;;;;;;16.73;10.03;;;21.90;46.00;;;;;;4907714;29;20441;-85
2021/10/11 01:07:51;;;;;;;13.93;10.00;;;21.80;45.90;;;;;;4906530;29;20433;-85
2021/10/11 01:10:19;;;;;;;13.37;10.43;;;21.80;45.90;;;;;;4906474;29;20417;-85
2021/10/11 01:12:48;;;;;;;14.47;10.83;;;21.80;46.10;;;;;;4906921;28;20483;-85
2021/10/11 01:15:16;;;;;;;19.03;9.50;;;21.90;46.20;;;;;;4906446;29;20449;-85
2021/10/11 01:17:44;;;;;;;14.17;10.70;;;21.80;46.10;;;;;;4906358;28;20489;-84
2021/10/11 01:20:13;;;;;;;13.70;9.33;;;21.80;46.00;;;;;;4901132;29;20541;-85
2021/10/11 01:22:42;;;;;;;13.70;10.13;;;21.80;46.10;;;;;;4905866;29;20430;-85
2021/10/11 01:25:11;;;;;;;14.63;9.70;;;21.80;46.10;;;;;;4906068;28;20492;-84
2021/10/11 01:27:40;;;;;;;14.90;10.37;;;21.80;46.10;;;;;;4906609;29;20481;-84
2021/10/11 01:30:11;;;;;;;12.73;10.17;;;21.80;46.10;;;;;;4906776;29;20452;-84
2021/10/11 01:32:40;;;;;;;14.07;9.90;;;21.80;46.20;;;;;;4906849;29;20437;-85
2021/10/11 01:35:08;;;;;;;11.40;9.27;;;21.80;46.20;;;;;;4906800;28;20515;-86
2021/10/11 01:37:38;;;;;;;13.93;9.80;;;21.70;46.20;;;;;;4899994;28;20449;-85
2021/10/11 01:40:07;;;;;;;15.83;10.13;;;21.70;46.20;;;;;;4887346;29;20537;-85
2021/10/11 01:42:35;;;;;;;14.50;9.13;;;21.70;46.20;;;;;;4887023;28;20438;-85
2021/10/11 01:45:04;;;;;;;14.10;9.50;;;21.70;46.20;;;;;;4887100;28;20477;-85
2021/10/11 01:47:32;;;;;;;14.00;9.27;;;21.70;46.30;;;;;;4886937;29;20441;-85
2021/10/11 01:50:00;;;;;;;16.73;10.30;;;21.70;46.20;;;;;;4887044;29;20521;-85
2021/10/11 01:52:28;;;;;;;13.47;9.90;;;21.70;46.30;;;;;;4886594;29;20456;-85
2021/10/11 01:54:57;;;;;;;11.00;9.07;;;21.70;46.40;;;;;;4889784;29;20526;-85
2021/10/11 01:57:27;;;;;;;13.20;9.33;;;21.70;46.40;;;;;;4885690;28;20709;-85
2021/10/11 01:59:55;;;;;;;13.70;9.63;;;21.70;46.50;;;;;;4885825;29;20513;-85
2021/10/11 02:02:23;;;;;;;13.93;9.67;;;21.70;46.50;;;;;;4885690;29;20473;-85
2021/10/11 02:04:51;;;;;;;12.63;9.83;;;21.70;46.50;;;;;;4886150;29;20466;-85
2021/10/11 02:07:19;;;;;;;12.70;9.60;;;21.70;46.50;;;;;;4885693;29;20458;-85
2021/10/11 02:09:48;;;;;;;13.93;10.03;;;21.70;46.50;;;;;;4885660;29;20452;-87
2021/10/11 02:12:17;;;;;;;13.03;9.23;;;21.70;46.50;;;;;;4886257;29;20442;-85
2021/10/11 02:14:47;;;;;;;13.37;9.63;;;21.60;46.40;;;;;;4885507;29;20672;-85
2021/10/11 02:17:15;;;;;;;12.93;8.90;;;21.60;46.60;;;;;;4885240;29;20428;-85
2021/10/11 02:19:43;;;;;;;12.93;8.73;;;21.60;46.50;;;;;;4899636;28;20481;-78
2021/10/11 02:22:11;;;;;;;15.10;9.27;;;21.60;46.50;;;;;;4953072;28;20452;-78
2021/10/11 02:24:39;;;;;;;10.40;9.10;;;21.60;46.60;;;;;;4907984;28;20524;-78
2021/10/11 02:27:08;;;;;;;10.93;8.63;;;21.70;46.60;;;;;;4906321;28;20462;-78
2021/10/11 02:29:37;;;;;;;13.63;9.20;;;21.60;46.50;;;;;;4904278;28;20540;-78
2021/10/11 02:32:06;;;;;;;11.93;9.23;;;21.60;46.60;;;;;;4902037;29;20535;-78
2021/10/11 02:34:34;;;;;;;13.13;9.30;;;21.60;46.70;;;;;;4907112;29;20525;-78
2021/10/11 02:37:02;;;;;;;12.43;8.87;;;21.60;46.70;;;;;;4910300;29;20473;-78
2021/10/11 02:39:30;;;;;;;12.30;9.00;;;21.60;46.80;;;;;;4911100;28;20534;-78
2021/10/11 02:41:58;;;;;;;9.57;8.37;;;21.60;46.80;;;;;;4910668;29;20445;-78
2021/10/11 02:44:26;;;;;;;11.27;8.60;;;21.60;46.80;;;;;;4911317;29;20519;-78
2021/10/11 02:46:55;;;;;;;11.13;8.90;;;21.50;46.80;;;;;;4911037;29;20484;-78
2021/10/11 02:49:23;;;;;;;13.50;9.23;;;21.50;46.80;;;;;;4910949;28;20476;-78
2021/10/11 02:51:51;;;;;;;11.57;8.43;;;21.50;46.80;;;;;;4911182;29;20530;-78
2021/10/11 02:54:19;;;;;;;13.10;8.83;;;21.50;46.80;;;;;;4910957;29;20483;-78
2021/10/11 02:56:47;;;;;;;10.00;8.13;;;21.50;46.80;;;;;;4910943;29;20444;-78
2021/10/11 02:59:15;;;;;;;13.17;8.20;;;21.50;46.90;;;;;;4911591;29;20504;-78
2021/10/11 03:01:43;;;;;;;14.20;9.73;;;21.40;47.00;;;;;;4911265;28;20408;-78
2021/10/11 03:04:13;;;;;;;11.43;8.17;;;21.50;47.00;;;;;;4910985;29;20433;-78
2021/10/11 03:06:41;;;;;;;9.67;8.23;;;21.40;47.00;;;;;;4911655;29;20510;-78
2021/10/11 03:09:09;;;;;;;10.37;7.90;;;21.40;47.00;;;;;;4910722;29;20514;-78
2021/10/11 03:11:37;;;;;;;9.57;8.03;;;21.40;47.00;;;;;;4911119;29;20507;-78
2021/10/11 03:14:05;;;;;;;11.67;8.27;;;21.40;47.00;;;;;;4911493;29;20514;-78
2021/10/11 03:16:34;;;;;;;9.63;7.90;;;21.40;47.10;;;;;;4910783;29;20447;-77
2021/10/11 03:19:02;;;;;;;13.23;8.70;;;21.40;47.00;;;;;;4910911;29;20483;-77
2021/10/11 03:21:31;;;;;;;10.20;8.00;;;21.40;47.10;;;;;;4911301;28;20453;-77
2021/10/11 03:23:59;;;;;;;9.53;7.20;;;21.40;47.10;;;;;;4894534;28;20528;-77
2021/10/11 03:26:27;;;;;;;11.37;8.03;;;21.40;47.10;;;;;;4892280;29;20458;-78
2021/10/11 03:28:57;;;;;;;11.00;8.37;;;21.40;47.10;;;;;;4892462;29;20465;-77
2021/10/11 03:31:27;;;;;;;15.77;8.03;;;21.40;47.10;;;;;;4892345;28;20487;-78
2021/10/11 03:33:55;;;;;;;10.57;8.03;;;21.40;47.10;;;;;;4891975;29;20481;-78
2021/10/11 03:36:23;;;;;;;10.47;7.83;;;21.40;47.20;;;;;;4892588;29;20453;-78
2021/10/11 03:38:53;;;;;;;11.13;8.37;;;21.30;47.10;;;;;;4892225;29;20442;-78
2021/10/11 03:41:20;;;;;;;8.57;7.53;;;21.30;47.10;;;;;;4892384;28;20438;-78
2021/10/11 03:43:48;;;;;;;11.13;8.23;;;21.30;47.20;;;;;;4892661;29;20476;-78
2021/10/11 03:46:16;;;;;;;9.97;7.03;;;21.30;47.20;;;;;;4889728;28;20445;-78
2021/10/11 03:48:44;;;;;;;13.10;8.30;;;21.30;47.20;;;;;;4889168;28;20460;-78
2021/10/11 03:51:12;;;;;;;12.33;7.50;;;21.30;47.30;;;;;;4888588;29;20453;-78
2021/10/11 03:53:40;;;;;;;9.17;7.77;;;21.30;47.30;;;;;;4888422;29;20462;-78
2021/10/11 03:56:10;;;;;;;10.03;7.07;;;21.30;47.30;;;;;;4887948;29;20438;-78
2021/10/11 03:58:38;;;;;;;10.73;7.30;;;21.30;47.30;;;;;;4888932;29;20504;-78
2021/10/11 04:01:06;;;;;;;11.10;8.40;;;21.30;47.30;;;;;;4893175;29;20481;-87
2021/10/11 04:03:35;;;;;;;10.60;7.97;;;21.20;47.30;;;;;;4906853;29;20533;-86
2021/10/11 04:06:03;;;;;;;9.70;7.77;;;21.20;47.40;;;;;;4907482;29;20456;-86
2021/10/11 04:08:34;;;;;;;8.40;7.10;;;21.20;47.30;;;;;;4907481;29;20491;-86
2021/10/11 04:11:06;;;;;;;10.60;8.50;;;21.20;47.40;;;;;;4907404;29;20426;-86
2021/10/11 04:13:36;;;;;;;10.80;7.40;;;21.20;47.40;;;;;;4906655;29;20433;-86
2021/10/11 04:16:05;;;;;;;9.37;7.83;;;21.20;47.40;;;;;;4907412;29;20499;-86
2021/10/11 04:18:33;;;;;;;9.33;7.40;;;21.20;47.40;;;;;;4907059;28;20446;-86
2021/10/11 04:21:01;;;;;;;9.43;7.80;;;21.20;47.50;;;;;;4907116;29;20531;-87
2021/10/11 04:23:29;;;;;;;9.97;7.70;;;21.20;47.50;;;;;;4907309;28;20547;-87
2021/10/11 04:25:58;;;;;;;8.77;7.00;;;21.20;47.50;;;;;;4906913;28;20481;-87
2021/10/11 04:28:26;;;;;;;11.60;7.80;;;21.20;47.60;;;;;;4907028;29;20433;-86
2021/10/11 04:30:55;;;;;;;8.60;7.10;;;21.20;47.60;;;;;;4906641;29;20457;-87
2021/10/11 04:33:25;;;;;;;8.13;7.10;;;21.10;47.50;;;;;;4907317;29;20433;-87
2021/10/11 04:35:53;;;;;;;10.87;7.17;;;21.20;47.60;;;;;;4907032;29;20469;-87
2021/10/11 04:38:21;;;;;;;9.67;7.40;;;21.10;47.50;;;;;;4907098;29;20448;-86
2021/10/11 04:40:49;;;;;;;8.70;7.13;;;21.10;47.70;;;;;;4906498;29;20504;-87
2021/10/11 04:43:17;;;;;;;9.20;7.20;;;21.10;47.60;;;;;;4906725;29;20453;-87
2021/10/11 04:45:45;;;;;;;7.93;6.90;;;21.10;47.70;;;;;;4907192;29;20552;-86
2021/10/11 04:48:14;;;;;;;11.40;7.30;;;21.10;47.60;;;;;;4906739;29;20546;-87
2021/10/11 04:50:42;;;;;;;9.60;7.40;;;21.00;47.70;;;;;;4906175;29;20453;-87
2021/10/11 04:53:12;;;;;;;8.43;7.30;;;21.10;47.80;;;;;;4906406;28;20524;-87
2021/10/11 04:55:40;;;;;;;7.87;6.57;;;21.10;47.80;;;;;;4906497;29;20438;-87
2021/10/11 04:58:10;;;;;;;10.73;7.00;;;21.00;47.70;;;;;;4906044;28;20571;-87
2021/10/11 05:00:38;;;;;;;10.50;7.07;;;21.00;47.80;;;;;;4906807;29;20493;-87
2021/10/11 05:03:06;;;;;;;7.90;7.07;;;21.00;47.80;;;;;;4906711;29;20441;-87
2021/10/11 05:05:36;;;;;;;9.80;6.50;;;21.00;47.80;;;;;;4906328;29;20511;-86
2021/10/11 05:08:04;;;;;;;7.53;6.63;;;21.00;47.80;;;;;;4906452;28;20476;-87
2021/10/11 05:10:34;;;;;;;9.07;6.77;;;21.00;47.80;;;;;;4906347;29;20452;-87
2021/10/11 05:13:02;;;;;;;8.23;6.93;;;21.00;47.90;;;;;;4906843;29;20457;-87
2021/10/11 05:15:30;;;;;;;8.07;6.47;;;21.00;48.00;;;;;;4906180;29;20539;-87
2021/10/11 05:18:01;;;;;;;10.70;6.63;;;20.90;47.90;;;;;;4906728;29;20487;-88
2021/10/11 05:20:32;;;;;;;8.07;6.90;;;20.90;47.90;;;;;;4906082;29;20503;-87
2021/10/11 05:23:02;;;;;;;9.97;7.23;;;20.90;47.90;;;;;;4905747;28;20457;-87
2021/10/11 05:25:30;;;;;;;7.00;6.30;;;20.90;48.00;;;;;;4906274;29;20453;-86
2021/10/11 05:27:58;;;;;;;9.10;6.27;;;20.90;47.90;;;;;;4906446;29;20503;-87
2021/10/11 05:30:26;;;;;;;8.00;6.70;;;20.90;47.90;;;;;;4905919;29;20449;-87
2021/10/11 05:32:53;;;;;;;9.40;6.50;;;20.90;48.00;;;;;;4906468;29;20445;-87
2021/10/11 05:35:21;;;;;;;7.77;6.10;;;20.90;48.10;;;;;;4906421;28;20452;-87
2021/10/11 05:37:49;;;;;;;7.73;6.73;;;20.90;48.10;;;;;;4905815;29;20433;-87
2021/10/11 05:40:19;;;;;;;8.23;6.07;;;20.90;48.10;;;;;;4905744;29;20481;-87
2021/10/11 05:42:47;;;;;;;8.50;6.47;;;20.90;47.90;;;;;;4905655;29;20491;-86
2021/10/11 05:45:15;;;;;;;11.30;7.17;;;20.90;48.10;;;;;;4905950;29;20477;-87
2021/10/11 05:47:45;;;;;;;7.20;6.47;;;20.90;48.10;;;;;;4905703;28;20441;-87
2021/10/11 05:50:13;;;;;;;9.50;6.37;;;20.90;48.20;;;;;;4905701;28;20449;-86
2021/10/11 05:52:41;;;;;;;6.27;5.67;;;20.90;48.20;;;;;;4906125;29;20485;-86
2021/10/11 05:55:09;;;;;;;8.53;6.70;;;20.90;48.10;;;;;;4905817;29;20479;-86
2021/10/11 05:57:40;;;;;;;9.07;6.20;;;20.90;48.20;;;;;;4905283;29;20480;-86
2021/10/11 06:00:09;;;;;;;7.07;6.00;;;20.90;48.10;;;;;;4905102;28;20453;-86
2021/10/11 06:02:37;;;;;;;8.33;6.57;;;20.90;48.10;;;;;;4905996;29;20483;-87
2021/10/11 06:05:06;;;;;;;10.10;7.50;;;20.90;48.10;;;;;;4896628;29;20587;-86
2021/10/11 06:07:34;;;;;;;7.80;6.47;;;20.90;48.10;;;;;;4887190;29;20461;-86
2021/10/11 06:10:02;;;;;;;8.23;6.60;;;20.90;48.10;;;;;;4886185;28;20557;-87
2021/10/11 06:12:30;;;;;;;8.63;6.87;;;20.90;48.20;;;;;;4886553;29;20556;-86
2021/10/11 06:15:01;;;;;;;6.10;5.60;;;20.90;48.70;;;;;;4886186;29;20454;-87
2021/10/11 06:17:29;;;;;;;7.70;6.13;;;20.90;48.20;;;;;;4886999;29;20469;-87
2021/10/11 06:19:57;;;;;;;6.80;6.10;;;20.90;48.80;;;;;;4886699;29;20454;-87
2021/10/11 06:22:25;;;;;;;8.30;6.27;;;20.90;48.10;;;;;;4886658;28;20560;-87
2021/10/11 06:24:54;;;;;;;7.47;6.43;;;20.90;48.10;;;;;;4886563;29;20442;-87
2021/10/11 06:27:22;;;;;;;6.13;5.33;;;20.90;48.10;;;;;;4886453;29;20446;-87
2021/10/11 06:29:50;;;;;;;8.17;6.60;;;21.00;48.30;;;;;;4886333;29;20492;-86
2021/10/11 06:32:19;;;;;;;8.43;6.10;;;21.00;48.20;;;;;;4886575;29;20533;-87
2021/10/11 06:34:47;;;;;;;6.93;6.00;;;21.00;48.10;;;;;;4886612;28;20544;-87
2021/10/11 06:37:15;;;;;;;7.03;5.50;;;21.00;48.20;;;;;;4886798;29;20537;-87
2021/10/11 06:39:43;;;;;;;6.40;5.40;;;21.00;48.10;;;;;;4886507;29;20481;-87
2021/10/11 06:42:11;;;;;;;6.83;5.70;;;21.00;48.10;;;;;;4886369;29;20536;-87
2021/10/11 06:44:41;;;;;;;6.60;5.90;;;21.00;48.10;;;;;;4886573;29;20562;-87
2021/10/11 06:47:09;;;;;;;6.70;5.90;;;21.00;48.00;;;;;;4886200;29;20489;-87
2021/10/11 06:49:38;;;;;;;5.80;5.20;;;21.10;48.20;;;;;;4885797;29;20457;-86
2021/10/11 06:52:08;;;;;;;7.30;5.17;;;21.10;48.70;;;;;;4886295;29;20461;-87
2021/10/11 06:54:36;;;;;;;6.53;5.33;;;21.00;48.00;;;;;;4886537;29;20480;-87
2021/10/11 06:57:04;;;;;;;7.07;5.87;;;21.10;48.10;;;;;;4886441;29;20466;-87
2021/10/11 06:59:32;;;;;;;5.87;5.27;;;21.10;48.00;;;;;;4886217;29;20454;-87
2021/10/11 07:02:00;;;;;;;6.80;5.70;;;21.10;48.00;;;;;;4885597;29;20489;-87
2021/10/11 07:04:37;;;;;;;5.80;5.20;;;21.20;48.00;;;;;;4891755;29;20456;-87
2021/10/11 07:07:06;;;;;;;6.40;5.80;;;21.20;48.00;;;;;;4904340;28;20445;-88
2021/10/11 07:09:34;;;;;;;5.73;5.23;;;21.20;47.90;;;;;;4904109;29;20545;-88
2021/10/11 07:12:03;;;;;;;6.33;5.70;;;21.20;48.00;;;;;;4904552;29;20469;-88
2021/10/11 07:14:30;;;;;;;6.33;5.50;;;21.20;48.00;;;;;;4905835;29;20433;-88
2021/10/11 07:17:01;;;;;;;6.37;5.33;;;21.30;47.90;;;;;;4905513;29;20464;-87
2021/10/11 07:19:30;;;;;;;6.93;5.80;;;21.30;47.90;;;;;;4904637;29;20433;-87
2021/10/11 07:22:00;;;;;;;5.60;4.90;;;21.30;47.90;;;;;;4905311;29;20496;-87
2021/10/11 07:24:29;;;;;;;5.57;4.97;;;21.30;47.80;;;;;;4906382;29;20445;-87
2021/10/11 07:26:57;;;;;;;6.50;5.33;;;21.30;47.80;;;;;;4907555;29;20495;-87
2021/10/11 07:29:25;;;;;;;5.60;5.00;;;21.40;47.80;;;;;;4907127;29;20425;-88
2021/10/11 07:31:56;;;;;;;5.93;4.90;;;21.40;47.80;;;;;;4907299;29;20429;-88
2021/10/11 07:34:25;;;;;;;6.47;4.97;;;21.40;47.70;;;;;;4907881;29;20464;-87
2021/10/11 07:36:53;;;;;;;9.07;5.63;;;21.40;47.70;;;;;;4907715;29;20445;-87
2021/10/11 07:39:21;;;;;;;6.10;4.77;;;21.40;47.70;;;;;;4907165;29;20449;-87
2021/10/11 07:41:50;;;;;;;5.63;5.00;;;21.40;47.70;;;;;;4906901;29;20464;-86
2021/10/11 07:44:18;;;;;;;5.20;4.63;;;21.50;47.70;;;;;;4906981;29;20433;-87
2021/10/11 07:46:51;;;;;;;6.63;5.27;;;21.50;47.70;;;;;;4906705;29;20437;-86
2021/10/11 07:49:30;;;;;;;5.17;4.67;;;21.50;47.70;;;;;;4907343;28;20458;-86
2021/10/11 07:51:58;;;;;;;6.97;5.53;;;21.60;47.70;;;;;;4907301;29;20460;-86
2021/10/11 07:54:26;;;;;;;5.43;4.90;;;21.60;47.60;;;;;;4907205;29;20437;-87
2021/10/11 07:56:58;;;;;;;5.73;4.80;;;21.70;47.60;;;;;;4907700;29;20560;-85
2021/10/11 07:59:28;;;;;;;5.63;5.00;;;21.70;47.60;;;;;;4909739;28;20452;-86
2021/10/11 08:01:56;;;;;;;5.10;4.70;;;21.80;47.70;;;;;;4914127;29;20487;-88
2021/10/11 08:04:25;;;;;;;6.73;5.10;;;21.90;47.50;;;;;;4914895;29;20521;-87
2021/10/11 08:06:53;;;;;;;5.13;4.73;;;22.00;47.50;;;;;;4914948;29;20453;-87
2021/10/11 08:09:21;;;;;;;4.63;4.30;;;22.10;47.50;;;;;;4916034;29;20467;-87
2021/10/11 08:11:49;;;;;;;5.10;4.60;;;22.20;47.60;;;;;;4917299;28;20446;-87
2021/10/11 08:14:19;;;;;;;5.40;4.60;;;22.30;47.60;;;;;;4916246;29;20481;-87
2021/10/11 08:16:47;;;;;;;5.30;4.60;;;22.40;47.50;;;;;;4912049;29;20495;-88
2021/10/11 08:19:15;;;;;;;4.13;3.83;;;22.50;47.40;;;;;;4906979;28;20449;-88
2021/10/11 08:21:43;;;;;;;5.33;4.60;;;22.70;47.30;;;;;;4905199;28;20565;-86
2021/10/11 08:24:15;;;;;;;4.90;4.50;;;22.90;47.20;;;;;;4909159;29;20436;-88
2021/10/11 08:26:43;;;;;;;7.77;4.53;;;23.00;47.00;;;;;;4917720;29;20519;-87
2021/10/11 08:29:11;;;;;;;4.93;4.53;;;23.20;46.90;;;;;;4908156;29;20461;-88
2021/10/11 08:31:41;;;;;;;6.07;4.87;;;23.40;46.90;;;;;;4908132;28;20453;-88
2021/10/11 08:34:09;;;;;;;5.27;4.37;;;23.50;46.80;;;;;;4907588;29;20453;-88
2021/10/11 08:36:37;;;;;;;4.70;4.30;;;23.60;46.80;;;;;;4907769;28;20476;-88
2021/10/11 08:39:05;;;;;;;5.00;4.50;;;23.80;46.70;;;;;;4907721;29;20441;-88
2021/10/11 08:41:33;;;;;;;5.27;4.50;;;24.00;46.60;;;;;;4907310;29;20451;-88
2021/10/11 08:44:02;;;;;;;4.93;4.43;;;24.00;46.40;;;;;;4907024;29;20463;-88
2021/10/11 08:46:31;;;;;;;5.30;4.30;;;24.10;46.50;;;;;;4907585;29;20465;-87
2021/10/11 08:49:01;;;;;;;5.17;4.57;;;24.20;46.40;;;;;;4907077;29;20477;-87
2021/10/11 08:51:29;;;;;;;4.90;4.50;;;24.20;46.20;;;;;;4908282;29;20433;-87
2021/10/11 08:53:57;;;;;;;4.70;4.30;;;24.10;46.20;;;;;;4908306;28;20427;-88
2021/10/11 08:56:27;;;;;;;5.47;3.93;;;24.10;46.30;;;;;;4906980;29;20472;-88
2021/10/11 08:58:55;;;;;;;7.70;3.83;;;24.00;46.50;;;;;;4906945;28;20460;-86
2021/10/11 09:01:23;;;;;;;5.00;3.87;;;23.90;46.70;;;;;;4906700;29;20461;-86
2021/10/11 09:03:52;;;;;;;5.30;4.30;;;23.80;46.80;;;;;;4906777;28;20499;-86
2021/10/11 09:06:25;;;;;;;4.93;4.20;;;23.70;46.90;;;;;;4907381;28;20457;-86
2021/10/11 09:08:56;;;;;;;4.13;3.83;;;23.70;47.00;;;;;;4906820;29;20480;-87
2021/10/11 09:11:29;;;;;;;4.90;3.97;;;23.80;47.10;;;;;;4906852;29;20473;-88
2021/10/11 09:14:02;;;;;;;5.67;4.00;;;23.80;47.10;;;;;;4906781;28;20448;-86
2021/10/11 09:16:33;;;;;;;4.20;3.80;;;23.90;47.10;;;;;;4906757;29;20437;-87
2021/10/11 09:19:10;;;;;;;5.67;4.30;;;23.90;47.00;;;;;;4906880;28;20457;-88
2021/10/11 09:21:39;;;;;;;4.33;4.00;;;23.80;46.80;;;;;;4906851;28;20518;-87
2021/10/11 09:24:09;;;;;;;4.33;3.87;;;23.80;47.00;;;;;;4903670;29;20507;-87
2021/10/11 09:26:43;;;;;;;7.30;4.20;;;23.80;47.00;;;;;;4905891;29;20539;-87
2021/10/11 09:29:12;;;;;;;9.67;4.20;;;23.80;47.00;;;;;;4906013;28;20453;-88
2021/10/11 09:31:41;;;;;;;5.03;4.33;;;23.80;47.00;;;;;;4904367;29;20449;-88
2021/10/11 09:34:10;;;;;;;6.77;4.13;;;23.80;47.10;;;;;;4906089;29;20437;-88
2021/10/11 09:36:40;;;;;;;4.77;3.50;;;23.80;47.30;;;;;;4905776;28;20419;-87
2021/10/11 09:39:08;;;;;;;4.67;4.10;;;23.90;47.10;;;;;;4906123;29;20479;-87
2021/10/11 09:41:36;;;;;;;4.93;3.50;;;23.90;47.10;;;;;;4905729;29;20441;-87
2021/10/11 09:44:11;;;;;;;4.23;3.73;;;24.10;47.00;;;;;;4904550;29;20637;-86
2021/10/11 09:46:44;;;;;;;4.90;3.50;;;24.30;47.00;;;;;;4903589;28;20436;-87
2021/10/11 09:49:13;;;;;;;4.10;3.70;;;24.30;46.60;;;;;;4905692;29;20438;-87
2021/10/11 09:51:42;;;;;;;6.10;3.80;;;24.50;46.60;;;;;;4905804;29;20453;-87
2021/10/11 09:54:10;;;;;;;6.00;3.57;;;24.70;46.40;;;;;;4905770;29;20430;-87
2021/10/11 09:56:38;;;;;;;3.67;3.27;;;24.80;46.20;;;;;;4906130;29;20488;-87
2021/10/11 09:59:09;;;;;;;3.87;3.43;;;24.90;46.20;;;;;;4908832;29;20481;-87
2021/10/11 10:01:37;;;;;;;3.53;3.23;;;25.00;46.30;;;;;;4902523;29;20524;-87
2021/10/11 10:04:05;;;;;;;5.27;3.70;;;25.10;45.70;;;;;;4907070;29;20546;-86
2021/10/11 10:06:34;;;;;;;3.20;3.00;;;25.10;45.70;;;;;;4906883;29;20437;-86
2021/10/11 10:09:04;;;;;;;3.83;3.53;;;25.20;45.80;;;;;;4906015;29;20492;-87
2021/10/11 10:11:34;;;;;;;4.00;3.13;;;25.30;45.90;;;;;;4906089;29;20501;-87
2021/10/11 10:14:03;;;;;;;4.40;3.60;;;25.50;45.90;;;;;;4905780;28;20449;-87
2021/10/11 10:16:32;;;;;;;3.63;3.30;;;25.80;45.70;;;;;;4906454;28;20453;-83
2021/10/11 10:19:11;;;;;;;3.90;3.50;;;25.90;45.00;;;;;;4901217;28;20432;-86
2021/10/11 10:21:41;;;;;;;4.50;3.27;;;26.10;45.30;;;;;;4895748;28;20481;-86
2021/10/11 10:24:10;;;;;;;3.60;3.30;;;26.40;45.20;;;;;;4950625;28;20488;-86
2021/10/11 10:26:40;;;;;;;8.90;3.13;;;26.60;44.80;;;;;;4922590;28;20453;-86
2021/10/11 10:29:12;;;;;;;4.20;3.60;;;26.90;44.70;;;;;;4909638;28;20436;-86
2021/10/11 10:31:41;;;;;;;4.10;3.10;;;27.20;44.60;;;;;;4913262;28;20437;-87
2021/10/11 10:34:19;;;;;;;2.97;2.70;;;27.50;44.40;;;;;;4906375;28;20439;-86
2021/10/11 10:36:58;;;;;;;3.20;3.00;;;27.80;44.10;;;;;;4898519;29;20458;-82
2021/10/11 10:39:38;;;;;;;4.00;3.17;;;28.30;43.80;;;;;;4930423;28;20506;-83
2021/10/11 10:42:08;;;;;;;3.27;3.07;;;28.70;43.40;;;;;;4953252;28;20445;-84
2021/10/11 10:44:43;;;;;;;3.43;3.13;;;29.00;42.50;;;;;;4903858;28;20472;-84
2021/10/11 10:47:12;;;;;;;3.20;2.90;;;29.10;42.10;;;;;;4910105;28;20493;-84
2021/10/11 10:49:43;;;;;;;3.10;2.80;;;28.90;42.00;;;;;;4903807;28;20464;-83
2021/10/11 10:52:14;;;;;;;3.07;2.87;;;28.70;42.30;;;;;;4932416;28;20461;-82
2021/10/11 10:54:44;;;;;;;4.43;2.87;;;28.80;43.00;;;;;;4909057;28;20451;-83
2021/10/11 10:57:14;;;;;;;2.73;2.53;;;29.00;42.60;;;;;;4942717;28;20583;-84
2021/10/11 10:59:50;;;;;;;8.33;2.80;;;29.40;42.20;;;;;;4918086;28;20459;-82
2021/10/11 11:02:18;;;;;;;3.63;2.53;;;29.50;41.50;;;;;;4913749;28;20456;-84
2021/10/11 11:04:55;;;;;;;3.13;2.83;;;29.40;41.50;;;;;;4908662;28;20555;-83
2021/10/11 11:07:27;;;;;;;3.30;3.07;;;29.30;41.50;;;;;;4923192;28;20500;-83
2021/10/11 11:09:56;;;;;;;3.93;3.17;;;29.70;41.80;;;;;;4910209;28;20451;-83
2021/10/11 11:12:29;;;;;;;6.83;3.03;;;30.60;41.50;;;;;;4938616;28;20435;-83
2021/10/11 11:14:57;;;;;;;3.47;3.17;;;31.10;38.70;;;;;;4909758;28;20457;-83
2021/10/11 11:17:29;;;;;;;3.10;2.87;;;30.50;39.30;;;;;;4903222;28;20457;-84
2021/10/11 11:19:58;;;;;;;4.00;2.27;;;32.10;39.60;;;;;;4915555;28;20439;-84
2021/10/11 11:22:30;;;;;;;3.30;2.40;;;32.70;38.20;;;;;;4921152;28;20536;-83
2021/10/11 11:25:02;;;;;;;2.70;2.50;;;33.30;37.20;;;;;;4899598;28;20574;-82
2021/10/11 11:27:31;;;;;;;3.73;2.57;;;33.10;35.20;;;;;;4929649;28;20472;-83
2021/10/11 11:30:00;;;;;;;6.60;2.53;;;32.10;36.10;;;;;;4915025;28;20472;-83
2021/10/11 11:32:28;;;;;;;3.20;2.77;;;31.30;37.30;;;;;;4915669;28;20435;-82
2021/10/11 11:34:57;;;;;;;2.63;2.43;;;31.70;40.30;;;;;;4903489;28;20458;-83
2021/10/11 11:37:26;;;;;;;2.30;2.20;;;33.80;38.20;;;;;;4908264;28;20443;-83
2021/10/11 11:40:06;;;;;;;3.43;3.00;;;35.60;35.00;;;;;;4911044;28;20469;-83
2021/10/11 11:42:35;;;;;;;2.50;2.30;;;37.20;32.40;;;;;;4902464;28;20504;-84
2021/10/11 11:45:04;;;;;;;2.17;2.07;;;38.30;30.70;;;;;;4914528;28;20484;-85
2021/10/11 11:47:32;;;;;;;2.23;2.10;;;39.20;29.80;;;;;;4945792;28;20457;-85
2021/10/11 11:50:01;;;;;;;1.97;1.87;;;40.00;28.40;;;;;;4943565;28;20468;-85
2021/10/11 11:52:33;;;;;;;2.97;1.63;;;40.70;27.90;;;;;;4911168;28;20465;-85
2021/10/11 11:55:01;;;;;;;5.53;1.80;;;41.30;27.10;;;;;;4941364;28;20791;-85
2021/10/11 11:57:40;;;;;;;2.90;1.70;;;41.30;26.60;;;;;;4956950;28;20476;-85
2021/10/11 12:00:13;;;;;;;2.73;1.60;;;41.70;26.90;;;;;;4913398;28;20627;-85
2021/10/11 12:02:45;;;;;;;1.90;1.80;;;42.20;26.40;;;;;;4920409;28;20453;-84
2021/10/11 12:05:13;;;;;;;1.67;1.57;;;40.30;26.70;;;;;;4901054;28;20573;-85
2021/10/11 12:07:42;;;;;;;1.60;1.50;;;41.20;27.20;;;;;;4912107;28;20495;-85
2021/10/11 12:10:13;;;;;;;1.50;1.50;;;41.90;26.50;;;;;;4921232;28;20448;-85
2021/10/11 12:12:43;;;;;;;1.50;1.40;;;42.70;26.00;;;;;;4911907;28;20453;-83
2021/10/11 12:15:18;;;;;;;1.70;1.70;;;43.30;25.60;;;;;;4915740;28;20459;-82
2021/10/11 12:17:46;;;;;;;1.57;1.47;;;43.90;24.90;;;;;;4904847;28;20460;-81
2021/10/11 12:20:14;;;;;;;1.80;1.67;;;44.10;24.60;;;;;;4899207;28;20622;-82
2021/10/11 12:22:44;;;;;;;1.60;1.50;;;43.00;25.30;;;;;;4899264;28;20486;-81
2021/10/11 12:25:12;;;;;;;1.50;1.50;;;41.40;25.60;;;;;;4906089;29;20475;-80
2021/10/11 12:27:41;;;;;;;2.10;2.00;;;40.30;27.10;;;;;;4932307;28;20531;-82
2021/10/11 12:30:10;;;;;;;2.23;1.87;;;39.40;26.60;;;;;;4919473;28;20531;-82
2021/10/11 12:32:39;;;;;;;7.03;1.70;;;38.50;26.70;;;;;;4915341;28;20457;-81
2021/10/11 12:35:08;;;;;;;4.30;1.90;;;37.70;28.00;;;;;;4917849;28;20516;-81
2021/10/11 12:37:39;;;;;;;1.93;1.83;;;38.40;27.70;;;;;;4917005;28;20457;-81
2021/10/11 12:40:08;;;;;;;1.67;1.37;;;38.60;27.30;;;;;;4907378;28;20492;-81
2021/10/11 12:42:45;;;;;;;5.10;1.53;;;38.50;26.50;;;;;;4914564;28;20467;-81
2021/10/11 12:45:15;;;;;;;2.40;1.80;;;36.70;27.90;;;;;;4918261;28;20467;-81
2021/10/11 12:47:43;;;;;;;2.60;2.27;;;36.50;29.20;;;;;;4905487;28;20543;-82
2021/10/11 12:50:12;;;;;;;1.70;1.60;;;35.10;29.60;;;;;;4950197;28;20538;-82
2021/10/11 12:52:42;;;;;;;3.33;1.77;;;34.00;30.80;;;;;;4920238;28;20458;-81